createdAt,value
2023-05-23T00:01:14.843Z,14.99
2023-05-23T00:03:43.472Z,14.96
2023-05-23T00:06:11.508Z,14.93
2023-05-23T00:08:39.484Z,14.91
2023-05-23T00:11:07.708Z,14.89
2023-05-23T00:13:35.938Z,14.86
2023-05-23T00:16:04.633Z,14.84
2023-05-23T00:18:32.552Z,14.82
2023-05-23T00:21:00.566Z,14.80
2023-05-23T00:23:29.797Z,14.78
2023-05-23T00:26:00.269Z,14.76
2023-05-23T00:28:28.182Z,14.74
2023-05-23T00:30:56.065Z,14.72
2023-05-23T00:33:23.965Z,14.70
2023-05-23T00:35:52.036Z,14.67
2023-05-23T00:38:20.014Z,14.66
2023-05-23T00:40:48.371Z,14.63
2023-05-23T00:43:16.542Z,14.61
2023-05-23T00:45:44.573Z,14.59
2023-05-23T00:48:12.858Z,14.58
2023-05-23T00:50:41.362Z,14.56
2023-05-23T00:53:09.406Z,14.54
2023-05-23T00:55:37.406Z,14.51
2023-05-23T00:58:05.731Z,14.48
2023-05-23T01:03:18.582Z,14.43
2023-05-23T01:05:46.855Z,14.40
2023-05-23T01:08:16.036Z,14.38
2023-05-23T01:10:44.162Z,14.35
2023-05-23T01:13:30.529Z,14.33
2023-05-23T01:16:02.910Z,14.30
2023-05-23T01:18:38.433Z,14.28
2023-05-23T01:21:12.617Z,14.55
2023-05-23T01:24:17.186Z,15.71
2023-05-23T01:27:27.695Z,16.34
2023-05-23T01:29:58.707Z,15.75
2023-05-23T01:32:27.608Z,15.39
2023-05-23T01:34:55.970Z,15.16
2023-05-23T01:37:23.953Z,14.99
2023-05-23T01:39:52.052Z,14.87
2023-05-23T01:42:20.046Z,14.75
2023-05-23T01:44:48.000Z,14.66
2023-05-23T01:47:16.702Z,14.57
2023-05-23T01:49:45.545Z,14.48
2023-05-23T01:52:13.733Z,14.40
2023-05-23T01:54:42.709Z,14.32
2023-05-23T01:57:11.368Z,14.24
2023-05-23T01:59:39.440Z,14.44
2023-05-23T02:02:07.463Z,15.50
2023-05-23T02:04:35.538Z,16.34
2023-05-23T02:07:03.580Z,16.12
2023-05-23T02:09:31.629Z,15.58
2023-05-23T02:11:59.748Z,15.21
2023-05-23T02:14:29.060Z,14.95
2023-05-23T02:16:57.221Z,14.77
2023-05-23T02:19:25.320Z,14.62
2023-05-23T02:21:53.433Z,14.49
2023-05-23T02:24:21.324Z,14.37
2023-05-23T02:26:49.424Z,14.26
2023-05-23T02:29:17.540Z,14.43
2023-05-23T02:31:46.047Z,15.40
2023-05-23T02:34:13.934Z,16.10
2023-05-23T02:36:41.908Z,15.69
2023-05-23T02:39:09.836Z,15.19
2023-05-23T02:41:37.905Z,14.85
2023-05-23T02:44:06.080Z,14.63
2023-05-23T02:46:34.044Z,14.44
2023-05-23T02:49:02.105Z,14.29
2023-05-23T02:51:30.129Z,14.47
2023-05-23T02:53:58.394Z,15.54
2023-05-23T02:56:26.998Z,16.47
2023-05-23T02:58:54.927Z,16.80
2023-05-23T03:01:23.457Z,16.16
2023-05-23T03:03:51.502Z,15.59
2023-05-23T03:06:22.482Z,15.19
2023-05-23T03:08:50.850Z,14.92
2023-05-23T03:11:18.839Z,14.70
2023-05-23T03:13:46.738Z,14.52
2023-05-23T03:16:14.660Z,14.36
2023-05-23T03:18:42.707Z,14.52
2023-05-23T03:21:10.810Z,15.50
2023-05-23T03:23:38.765Z,15.93
2023-05-23T03:26:06.879Z,15.45
2023-05-23T03:28:34.918Z,15.01
2023-05-23T03:31:03.122Z,14.70
2023-05-23T03:33:31.047Z,14.72
2023-05-23T03:35:59.062Z,15.65
2023-05-23T03:38:28.159Z,16.17
2023-05-23T03:40:56.079Z,15.68
2023-05-23T03:43:24.375Z,15.22
2023-05-23T03:45:52.324Z,14.92
2023-05-23T03:48:20.240Z,14.70
2023-05-23T03:50:48.253Z,14.84
2023-05-23T03:53:16.474Z,15.85
2023-05-23T03:55:44.376Z,16.25
2023-05-23T03:58:12.425Z,15.76
2023-05-23T04:00:40.958Z,15.31
2023-05-23T04:03:10.654Z,15.01
2023-05-23T04:05:38.779Z,14.81
2023-05-23T04:08:06.902Z,15.01
2023-05-23T04:10:34.771Z,16.13
2023-05-23T04:13:02.981Z,16.59
2023-05-23T04:15:30.992Z,16.13
2023-05-23T04:17:59.653Z,15.74
2023-05-23T04:20:28.280Z,15.50
2023-05-23T04:22:56.344Z,15.36
2023-05-23T04:25:24.724Z,15.30
2023-05-23T04:27:54.341Z,15.28
2023-05-23T04:30:22.420Z,15.83
2023-05-23T04:32:50.300Z,17.07
2023-05-23T04:35:18.363Z,17.20
2023-05-23T04:37:47.048Z,16.75
2023-05-23T04:40:16.147Z,16.45
2023-05-23T04:42:44.738Z,16.26
2023-05-23T04:45:12.578Z,16.16
2023-05-23T04:47:42.049Z,16.10
2023-05-23T04:50:11.357Z,16.05
2023-05-23T04:52:39.144Z,16.01
2023-05-23T04:55:08.805Z,15.97
2023-05-23T04:57:37.310Z,15.94
2023-05-23T05:00:12.917Z,15.93
2023-05-23T05:02:41.955Z,15.89
2023-05-23T05:05:10.831Z,15.84
2023-05-23T05:07:39.317Z,15.80
2023-05-23T05:10:07.877Z,15.75
2023-05-23T05:12:35.797Z,15.72
2023-05-23T05:15:04.602Z,16.42
2023-05-23T05:17:37.030Z,17.71
2023-05-23T05:20:08.810Z,18.11
2023-05-23T05:22:40.559Z,17.57
2023-05-23T05:25:09.813Z,17.18
2023-05-23T05:27:38.106Z,16.97
2023-05-23T05:30:08.941Z,16.86
2023-05-23T05:32:36.951Z,16.80
2023-05-23T05:35:05.675Z,16.78
2023-05-23T05:37:33.694Z,16.76
2023-05-23T05:40:06.612Z,16.77
2023-05-23T05:42:34.731Z,16.79
2023-05-23T05:45:03.206Z,16.82
2023-05-23T05:47:31.183Z,16.87
2023-05-23T05:49:59.099Z,16.93
2023-05-23T05:52:27.006Z,17.00
2023-05-23T05:54:54.794Z,17.09
2023-05-23T05:57:22.938Z,17.23
2023-05-23T05:59:51.093Z,17.37
2023-05-23T06:02:19.070Z,17.49
2023-05-23T06:04:47.131Z,17.60
2023-05-23T06:07:15.241Z,17.71
2023-05-23T06:09:43.562Z,17.78
2023-05-23T06:12:11.447Z,17.88
2023-05-23T06:14:39.263Z,17.99
2023-05-23T06:17:07.593Z,18.13
2023-05-23T06:19:35.524Z,18.28
2023-05-23T06:22:03.535Z,18.47
2023-05-23T06:24:31.411Z,18.66
2023-05-23T06:26:59.305Z,18.85
2023-05-23T06:29:27.097Z,19.02
2023-05-23T06:31:54.966Z,19.18
2023-05-23T06:34:23.188Z,19.33
2023-05-23T06:36:53.814Z,19.42
2023-05-23T06:39:21.824Z,19.51
2023-05-23T06:41:49.860Z,19.60
2023-05-23T06:44:18.056Z,19.68
2023-05-23T06:46:47.273Z,19.76
2023-05-23T06:49:15.936Z,19.82
2023-05-23T06:51:43.922Z,19.87
2023-05-23T06:54:11.899Z,19.94
2023-05-23T06:56:40.070Z,20.00
2023-05-23T06:59:07.932Z,20.04
2023-05-23T07:01:35.894Z,20.09
2023-05-23T07:04:03.676Z,20.14
2023-05-23T07:06:32.803Z,20.19
2023-05-23T07:09:00.866Z,20.26
2023-05-23T07:11:28.720Z,20.36
2023-05-23T07:13:56.508Z,20.49
2023-05-23T07:16:24.480Z,20.62
2023-05-23T07:18:52.434Z,20.77
2023-05-23T07:21:20.367Z,20.87
2023-05-23T07:23:48.214Z,20.97
2023-05-23T07:26:16.102Z,21.05
2023-05-23T07:28:43.971Z,21.16
2023-05-23T07:31:12.075Z,21.25
2023-05-23T07:33:39.953Z,21.35
2023-05-23T07:36:08.278Z,21.43
2023-05-23T07:38:36.488Z,21.50
2023-05-23T07:41:11.697Z,21.59
2023-05-23T07:43:41.136Z,21.68
2023-05-23T07:46:09.168Z,21.76
2023-05-23T07:48:37.163Z,21.88
2023-05-23T07:51:05.229Z,22.00
2023-05-23T07:53:33.231Z,22.16
2023-05-23T07:56:01.376Z,22.30
2023-05-23T07:58:29.218Z,22.41
2023-05-23T08:00:58.161Z,22.57
2023-05-23T08:03:26.159Z,22.71
2023-05-23T08:05:54.748Z,22.83
2023-05-23T08:08:23.060Z,22.94
2023-05-23T08:10:51.209Z,23.07
2023-05-23T08:13:19.131Z,23.22
2023-05-23T08:15:47.136Z,23.42
2023-05-23T08:18:15.278Z,23.59
2023-05-23T08:20:43.558Z,23.77
2023-05-23T08:23:12.702Z,23.98
2023-05-23T08:25:40.806Z,24.21
2023-05-23T08:28:08.871Z,24.43
2023-05-23T08:30:36.912Z,24.66
2023-05-23T08:33:05.217Z,24.92
2023-05-23T08:35:36.710Z,25.18
2023-05-23T08:38:07.919Z,25.42
2023-05-23T08:40:37.099Z,25.61
2023-05-23T08:43:05.020Z,25.80
2023-05-23T08:45:34.850Z,25.89
2023-05-23T08:48:04.674Z,25.95
2023-05-23T08:50:32.631Z,26.06
2023-05-23T08:53:00.520Z,26.18
2023-05-23T08:55:29.447Z,26.30
2023-05-23T08:58:01.856Z,26.36
2023-05-23T09:00:30.120Z,26.44
2023-05-23T09:02:58.218Z,26.51
2023-05-23T09:05:27.110Z,26.57
2023-05-23T09:07:55.240Z,26.63
2023-05-23T09:10:23.315Z,26.66
2023-05-23T09:12:51.267Z,26.65
2023-05-23T09:15:19.181Z,26.64
2023-05-23T09:17:47.091Z,26.64
2023-05-23T09:20:17.553Z,26.63
2023-05-23T09:22:49.020Z,26.54
2023-05-23T09:25:16.845Z,26.47
2023-05-23T09:27:47.721Z,26.47
2023-05-23T09:30:18.108Z,26.49
2023-05-23T09:33:02.166Z,26.54
2023-05-23T09:35:32.855Z,26.60
2023-05-23T09:38:03.775Z,26.65
2023-05-23T09:40:33.485Z,26.66
2023-05-23T09:43:05.667Z,26.63
2023-05-23T09:45:34.303Z,26.63
2023-05-23T09:48:02.550Z,26.63
2023-05-23T09:50:33.787Z,26.60
2023-05-23T09:53:02.236Z,26.56
2023-05-23T09:55:31.124Z,26.53
2023-05-23T09:58:00.171Z,26.50
2023-05-23T10:00:28.829Z,26.46
2023-05-23T10:03:15.443Z,26.41
2023-05-23T10:05:52.824Z,26.33
2023-05-23T10:08:49.168Z,26.23
2023-05-23T10:12:14.121Z,26.14
2023-05-23T10:14:46.107Z,26.03
2023-05-23T10:17:35.892Z,25.94
2023-05-23T10:20:16.420Z,25.86
2023-05-23T10:22:44.305Z,25.72
2023-05-23T10:25:13.513Z,25.65
2023-05-23T10:27:42.390Z,25.58
2023-05-23T10:30:11.420Z,25.53
2023-05-23T10:32:39.578Z,25.48
2023-05-23T10:35:39.507Z,25.42
2023-05-23T10:38:16.800Z,25.34
2023-05-23T10:41:31.614Z,25.27
2023-05-23T10:44:30.202Z,25.17
2023-05-23T10:47:03.904Z,25.03
2023-05-23T10:49:43.771Z,24.91
2023-05-23T10:52:14.742Z,24.80
2023-05-23T10:54:50.857Z,24.69
2023-05-23T10:57:23.682Z,24.59
2023-05-23T10:59:52.178Z,24.47
2023-05-23T11:02:26.873Z,24.34
2023-05-23T11:05:31.883Z,24.18
2023-05-23T11:08:17.837Z,23.97
2023-05-23T11:11:02.792Z,23.76
2023-05-23T11:14:00.666Z,23.52
2023-05-23T11:16:51.110Z,23.24
2023-05-23T11:19:18.978Z,22.97
2023-05-23T11:22:03.625Z,22.73
2023-05-23T11:24:54.386Z,22.49
2023-05-23T11:27:37.897Z,22.26
2023-05-23T11:30:16.556Z,22.05
2023-05-23T11:32:53.164Z,21.88
2023-05-23T11:35:21.620Z,21.72
2023-05-23T11:37:50.026Z,21.60
2023-05-23T11:40:32.381Z,21.47
2023-05-23T11:43:09.111Z,21.35
2023-05-23T11:45:39.033Z,21.25
2023-05-23T11:48:13.054Z,21.16
2023-05-23T11:50:59.109Z,21.35
2023-05-23T11:53:28.221Z,22.64
2023-05-23T11:56:00.285Z,23.62
2023-05-23T11:58:35.611Z,23.93
2023-05-23T12:01:06.685Z,23.21
2023-05-23T12:03:38.357Z,22.89
2023-05-23T12:06:07.119Z,23.69
2023-05-23T12:08:34.978Z,24.43
2023-05-23T12:11:03.165Z,24.16
2023-05-23T12:13:31.181Z,23.38
2023-05-23T12:16:03.085Z,22.78
2023-05-23T12:18:32.496Z,22.34
2023-05-23T12:21:06.207Z,22.17
2023-05-23T12:23:36.033Z,23.03
2023-05-23T12:26:07.912Z,23.84
2023-05-23T12:28:45.332Z,23.60
2023-05-23T12:31:17.827Z,22.76
2023-05-23T12:33:48.329Z,22.15
2023-05-23T12:36:26.222Z,21.71
2023-05-23T12:38:54.452Z,21.96
2023-05-23T12:41:22.505Z,22.93
2023-05-23T12:43:56.000Z,23.16
2023-05-23T12:46:27.837Z,22.41
2023-05-23T12:48:56.260Z,21.78
2023-05-23T12:51:24.394Z,21.48
2023-05-23T12:53:52.535Z,22.20
2023-05-23T12:56:22.449Z,23.04
2023-05-23T12:58:50.501Z,23.62
2023-05-23T13:01:18.634Z,23.53
2023-05-23T13:03:46.671Z,22.71
2023-05-23T13:06:14.837Z,22.01
2023-05-23T13:08:42.828Z,21.51
2023-05-23T13:11:11.027Z,21.12
2023-05-23T13:13:38.974Z,21.13
2023-05-23T13:16:07.107Z,22.03
2023-05-23T13:18:35.073Z,22.89
2023-05-23T13:21:03.720Z,23.48
2023-05-23T13:23:31.578Z,23.55
2023-05-23T13:25:59.415Z,22.69
2023-05-23T13:28:27.502Z,21.95
2023-05-23T13:30:55.539Z,21.77
2023-05-23T13:33:23.828Z,22.53
2023-05-23T13:35:53.330Z,23.27
2023-05-23T13:38:22.125Z,23.82
2023-05-23T13:40:51.848Z,23.74
2023-05-23T13:43:19.910Z,22.79
2023-05-23T13:45:47.820Z,22.03
2023-05-23T13:48:15.811Z,21.49
2023-05-23T13:50:45.103Z,21.52
2023-05-23T13:53:16.735Z,22.37
2023-05-23T13:55:47.666Z,23.08
2023-05-23T13:58:18.109Z,23.63
2023-05-23T14:00:47.535Z,23.97
2023-05-23T14:03:16.112Z,23.33
2023-05-23T14:05:47.194Z,22.41
2023-05-23T14:08:15.136Z,22.16
2023-05-23T14:10:43.404Z,22.83
2023-05-23T14:13:12.188Z,22.93
2023-05-23T14:15:42.246Z,22.15
2023-05-23T14:18:10.940Z,21.78
2023-05-23T14:20:38.909Z,22.39
2023-05-23T14:23:06.809Z,22.96
2023-05-23T14:25:34.800Z,23.37
2023-05-23T14:28:02.882Z,23.39
2023-05-23T14:30:30.833Z,22.54
2023-05-23T14:32:58.804Z,21.78
2023-05-23T14:35:27.516Z,21.57
2023-05-23T14:37:55.533Z,22.34
2023-05-23T14:40:23.566Z,23.03
2023-05-23T14:42:51.564Z,23.48
2023-05-23T14:45:19.665Z,23.78
2023-05-23T14:47:47.763Z,23.19
2023-05-23T14:50:16.048Z,22.36
2023-05-23T14:52:44.157Z,21.76
2023-05-23T14:55:12.443Z,21.96
2023-05-23T14:57:53.915Z,22.87
2023-05-23T15:00:27.475Z,23.57
2023-05-23T15:02:59.215Z,23.99
2023-05-23T15:05:27.872Z,23.78
2023-05-23T15:07:56.592Z,22.89
2023-05-23T15:10:24.716Z,22.44
2023-05-23T15:12:54.625Z,23.10
2023-05-23T15:15:37.343Z,23.83
2023-05-23T15:18:08.352Z,24.21
2023-05-23T15:20:36.876Z,23.65
2023-05-23T15:23:07.430Z,22.84
2023-05-23T15:25:48.783Z,22.54
2023-05-23T15:28:18.549Z,23.41
2023-05-23T15:30:46.712Z,24.14
2023-05-23T15:33:16.116Z,24.60
2023-05-23T15:35:44.875Z,24.05
2023-05-23T15:38:14.674Z,23.20
2023-05-23T15:40:43.658Z,22.87
2023-05-23T15:43:11.913Z,23.61
2023-05-23T15:45:39.990Z,24.33
2023-05-23T15:48:08.272Z,24.82
2023-05-23T15:50:36.348Z,25.18
2023-05-23T15:53:04.891Z,24.99
2023-05-23T15:55:33.332Z,24.05
2023-05-23T15:58:01.366Z,23.32
2023-05-23T16:00:29.270Z,22.81
2023-05-23T16:02:57.314Z,22.42
2023-05-23T16:05:25.825Z,22.11
2023-05-23T16:07:53.665Z,21.84
2023-05-23T16:10:21.624Z,21.94
2023-05-23T16:12:49.502Z,22.95
2023-05-23T16:15:17.535Z,24.00
2023-05-23T16:17:45.707Z,23.72
2023-05-23T16:20:13.723Z,22.94
2023-05-23T16:22:41.896Z,22.38
2023-05-23T16:25:10.691Z,21.97
2023-05-23T16:27:39.504Z,21.66
2023-05-23T16:30:08.595Z,21.66
2023-05-23T16:32:36.725Z,22.55
2023-05-23T16:35:05.341Z,23.38
2023-05-23T16:37:33.283Z,23.52
2023-05-23T16:40:01.424Z,22.86
2023-05-23T16:42:29.341Z,22.34
2023-05-23T16:44:57.489Z,21.96
2023-05-23T16:47:25.556Z,21.68
2023-05-23T16:49:53.588Z,21.69
2023-05-23T16:52:21.481Z,22.56
2023-05-23T16:54:49.480Z,23.06
2023-05-23T16:57:17.495Z,22.55
2023-05-23T16:59:45.469Z,22.03
2023-05-23T17:02:16.092Z,21.65
2023-05-23T17:04:44.131Z,21.68
2023-05-23T17:07:12.211Z,22.58
2023-05-23T17:09:40.593Z,23.12
2023-05-23T17:12:08.910Z,22.58
2023-05-23T17:14:38.135Z,22.03
2023-05-23T17:17:06.591Z,21.64
2023-05-23T17:19:36.040Z,21.59
2023-05-23T17:22:06.888Z,22.39
2023-05-23T17:24:36.732Z,23.18
2023-05-23T17:27:05.353Z,23.69
2023-05-23T17:29:33.286Z,23.30
2023-05-23T17:32:01.358Z,22.59
2023-05-23T17:34:29.742Z,22.11
2023-05-23T17:36:58.082Z,22.42
2023-05-23T17:39:26.357Z,23.13
2023-05-23T17:41:54.510Z,23.56
2023-05-23T17:44:22.571Z,23.94
2023-05-23T17:46:50.730Z,23.95
2023-05-23T17:49:18.772Z,23.22
2023-05-23T17:51:47.020Z,22.57
2023-05-23T17:54:14.849Z,22.10
2023-05-23T17:56:43.276Z,22.03
2023-05-23T17:59:15.559Z,22.74
2023-05-23T18:01:43.425Z,23.43
2023-05-23T18:04:11.403Z,23.85
2023-05-23T18:06:39.336Z,23.53
2023-05-23T18:09:07.203Z,22.78
2023-05-23T18:11:35.075Z,22.41
2023-05-23T18:14:03.310Z,22.89
2023-05-23T18:16:32.337Z,23.45
2023-05-23T18:19:00.381Z,23.83
2023-05-23T18:21:29.295Z,24.04
2023-05-23T18:23:57.677Z,24.27
2023-05-23T18:26:25.646Z,24.54
2023-05-23T18:28:53.552Z,24.76
2023-05-23T18:31:21.600Z,24.65
2023-05-23T18:33:49.486Z,23.76
2023-05-23T18:36:17.430Z,23.00
2023-05-23T18:38:45.775Z,22.69
2023-05-23T18:41:14.998Z,23.23
2023-05-23T18:43:43.290Z,23.70
2023-05-23T18:46:11.748Z,24.00
2023-05-23T18:48:41.146Z,24.21
2023-05-23T18:51:09.549Z,24.11
2023-05-23T18:53:37.422Z,23.29
2023-05-23T18:56:05.503Z,22.56
2023-05-23T18:58:33.520Z,22.49
2023-05-23T19:01:03.848Z,23.04
2023-05-23T19:03:33.636Z,23.44
2023-05-23T19:06:04.538Z,23.71
2023-05-23T19:08:33.069Z,23.90
2023-05-23T19:11:01.280Z,24.03
2023-05-23T19:13:29.300Z,24.11
2023-05-23T19:15:57.177Z,24.17
2023-05-23T19:18:25.473Z,24.24
2023-05-23T19:20:54.670Z,24.29
2023-05-23T19:23:23.983Z,24.09
2023-05-23T19:25:51.945Z,23.27
2023-05-23T19:28:20.111Z,22.55
2023-05-23T19:30:48.501Z,22.53
2023-05-23T19:33:18.479Z,22.96
2023-05-23T19:35:46.394Z,23.36
2023-05-23T19:38:14.477Z,23.75
2023-05-23T19:40:42.625Z,23.98
2023-05-23T19:43:10.764Z,24.17
2023-05-23T19:45:38.786Z,23.99
2023-05-23T19:48:07.259Z,23.10
2023-05-23T19:50:44.171Z,22.35
2023-05-23T19:53:12.626Z,22.08
2023-05-23T19:55:42.753Z,22.60
2023-05-23T19:58:10.843Z,22.94
2023-05-23T20:00:38.761Z,23.04
2023-05-23T20:03:31.640Z,23.01
2023-05-23T20:06:10.744Z,23.16
2023-05-23T20:08:39.035Z,23.47
2023-05-23T20:11:07.112Z,23.95
2023-05-23T20:13:35.691Z,23.82
2023-05-23T20:16:03.981Z,22.91
2023-05-23T20:18:32.239Z,22.16
2023-05-23T20:21:01.125Z,22.35
2023-05-23T20:23:30.249Z,23.20
2023-05-23T20:26:00.151Z,23.76
2023-05-23T20:28:28.045Z,23.75
2023-05-23T20:30:56.733Z,22.84
2023-05-23T20:33:25.125Z,22.09
2023-05-23T20:35:54.045Z,22.46
2023-05-23T20:38:24.833Z,23.42
2023-05-23T20:40:53.133Z,24.12
2023-05-23T20:43:22.741Z,23.47
2023-05-23T20:45:51.326Z,22.49
2023-05-23T20:48:19.624Z,22.21
2023-05-23T20:50:48.365Z,23.24
2023-05-23T20:53:19.877Z,24.11
2023-05-23T20:55:49.444Z,23.63
2023-05-23T20:58:18.988Z,22.59
2023-05-23T21:00:47.131Z,22.25
2023-05-23T21:03:15.274Z,23.24
2023-05-23T21:05:44.211Z,24.04
2023-05-23T21:08:12.608Z,23.68
2023-05-23T21:10:41.102Z,22.63
2023-05-23T21:13:09.601Z,22.18
2023-05-23T21:15:37.499Z,22.97
2023-05-23T21:18:05.731Z,23.89
2023-05-23T21:20:33.884Z,23.94
2023-05-23T21:23:01.721Z,22.90
2023-05-23T21:25:29.622Z,22.05
2023-05-23T21:27:57.503Z,22.25
2023-05-23T21:30:26.410Z,23.32
2023-05-23T21:32:54.796Z,24.02
2023-05-23T21:35:22.814Z,23.34
2023-05-23T21:37:50.962Z,22.34
2023-05-23T21:40:19.192Z,22.02
2023-05-23T21:42:47.064Z,22.98
2023-05-23T21:45:15.236Z,23.77
2023-05-23T21:47:43.213Z,23.50
2023-05-23T21:50:11.689Z,22.47
2023-05-23T21:52:39.527Z,21.88
2023-05-23T21:55:09.137Z,22.65
2023-05-23T21:57:37.862Z,23.60
2023-05-23T22:00:12.210Z,23.75
2023-05-23T22:02:40.819Z,22.69
2023-05-23T22:05:09.166Z,21.83
2023-05-23T22:07:37.309Z,22.18
2023-05-23T22:10:06.548Z,23.17
2023-05-23T22:12:34.425Z,23.85
2023-05-23T22:15:02.350Z,23.33
2023-05-23T22:17:30.584Z,22.29
2023-05-23T22:19:58.651Z,21.92
2023-05-23T22:22:27.240Z,22.88
2023-05-23T22:24:55.126Z,23.76
2023-05-23T22:27:23.219Z,23.56
2023-05-23T22:29:51.193Z,22.50
2023-05-23T22:32:19.244Z,22.01
2023-05-23T22:34:47.349Z,22.86
2023-05-23T22:37:16.123Z,23.73
2023-05-23T22:39:44.011Z,23.65
2023-05-23T22:42:11.855Z,22.57
2023-05-23T22:44:39.942Z,22.10
2023-05-23T22:47:10.305Z,23.01
2023-05-23T22:49:39.177Z,23.90
2023-05-23T22:52:08.323Z,23.54
2023-05-23T22:54:36.327Z,22.45
2023-05-23T22:57:04.421Z,22.03
2023-05-23T22:59:32.938Z,22.88
2023-05-23T23:02:01.132Z,23.71
2023-05-23T23:04:31.004Z,23.81
2023-05-23T23:07:02.681Z,22.75
2023-05-23T23:09:30.595Z,21.92
2023-05-23T23:11:58.520Z,22.43
2023-05-23T23:14:26.481Z,23.42
2023-05-23T23:16:54.502Z,23.65
2023-05-23T23:19:22.714Z,22.68
2023-05-23T23:21:51.798Z,21.96
2023-05-23T23:24:19.701Z,22.66
2023-05-23T23:26:47.592Z,23.54
2023-05-23T23:29:15.685Z,23.64
2023-05-23T23:31:43.584Z,22.62
2023-05-23T23:34:11.548Z,21.76
2023-05-23T23:36:39.917Z,22.08
2023-05-23T23:39:07.806Z,23.10
2023-05-23T23:41:35.620Z,23.45
2023-05-23T23:44:03.391Z,22.50
2023-05-23T23:46:31.308Z,21.66
2023-05-23T23:48:59.136Z,22.06
2023-05-23T23:51:26.986Z,22.98
2023-05-23T23:53:54.853Z,23.54
2023-05-23T23:56:22.878Z,22.92
2023-05-23T23:58:51.117Z,21.92
